Time;durP1;ratioP1;P1;durP2;ratioP2;P2;SDS_P1;SDS_P2;PMS_P1;PMS_P2;Temp;Humidity;BMP_temperature;BMP_pressure;BME280_temperature;BME280_humidity;BME280_pressure;Samples;Min_cycle;Max_cycle;Signal;HPM_P1;HPM_P2
2021/05/11 00:00:10;;;;;;;1.83;1.52;;;;;;;14.33;96.00;101498.09;5055408;28;20021;-73
2021/05/11 00:02:57;;;;;;;2.42;1.60;;;;;;;14.38;97.56;101493.59;5053855;28;20032;-72
2021/05/11 00:05:42;;;;;;;5.93;1.83;;;;;;;14.28;97.44;101491.19;5040921;28;20072;-73
2021/05/11 00:08:28;;;;;;;2.53;1.40;;;;;;;14.39;95.85;101483.94;5055195;28;20052;-73
2021/05/11 00:11:14;;;;;;;4.53;2.10;;;;;;;13.89;98.81;101492.78;5054904;28;20049;-74
2021/05/11 00:14:00;;;;;;;4.32;1.88;;;;;;;14.21;97.06;101489.56;5054942;28;20338;-73
2021/05/11 00:16:46;;;;;;;2.05;1.60;;;;;;;14.15;96.43;101479.97;5055076;28;20036;-74
2021/05/11 00:19:34;;;;;;;2.00;1.50;;;;;;;13.63;99.83;101481.84;5054873;28;20119;-73
2021/05/11 00:22:20;;;;;;;1.40;1.20;;;;;;;13.66;100.00;101473.03;5054712;28;20091;-73
2021/05/11 00:25:07;;;;;;;2.95;1.42;;;;;;;13.63;100.00;101467.84;5054609;28;20056;-73
2021/05/11 00:27:52;;;;;;;2.13;1.45;;;;;;;13.39;100.00;101479.63;5041155;28;20464;-73
2021/05/11 00:30:38;;;;;;;4.63;1.65;;;;;;;13.68;100.00;101472.13;5040909;28;20051;-73
2021/05/11 00:33:24;;;;;;;1.65;1.40;;;;;;;13.29;100.00;101475.44;5054744;28;20029;-73
2021/05/11 00:36:10;;;;;;;2.90;1.73;;;;;;;13.68;100.00;101469.50;5040823;28;20067;-73
2021/05/11 00:38:56;;;;;;;4.20;1.52;;;;;;;13.54;100.00;101467.97;5040558;28;20032;-73
2021/05/11 00:41:42;;;;;;;2.00;1.65;;;;;;;13.32;100.00;101475.41;5040506;28;20033;-74
2021/05/11 00:44:29;;;;;;;3.08;1.40;;;;;;;13.28;100.00;101465.81;5040646;28;20025;-74
2021/05/11 00:47:15;;;;;;;1.98;1.52;;;;;;;13.54;100.00;101471.50;5054477;28;20067;-74
2021/05/11 00:50:01;;;;;;;1.88;1.60;;;;;;;13.67;99.71;101470.38;5054507;28;20112;-74
2021/05/11 00:52:47;;;;;;;2.47;1.60;;;;;;;13.55;100.00;101470.59;5041025;28;20021;-74
2021/05/11 00:55:33;;;;;;;2.28;1.55;;;;;;;13.45;100.00;101463.75;5040280;28;20098;-74
2021/05/11 00:58:19;;;;;;;2.55;1.52;;;;;;;13.51;100.00;101461.00;5054586;28;20445;-74
2021/05/11 01:01:05;;;;;;;3.53;1.52;;;;;;;13.49;100.00;101469.81;5054134;28;20029;-74
2021/05/11 01:03:51;;;;;;;2.30;1.45;;;;;;;13.39;100.00;101470.91;5054355;28;20029;-74
2021/05/11 01:06:36;;;;;;;2.22;1.55;;;;;;;13.51;99.27;101462.78;5054370;28;20025;-73
2021/05/11 01:09:23;;;;;;;3.50;1.50;;;;;;;13.31;99.36;101476.25;5054327;28;20040;-74
2021/05/11 01:12:09;;;;;;;2.28;1.60;;;;;;;13.32;99.24;101471.88;5054007;28;20056;-74
2021/05/11 01:14:55;;;;;;;2.33;1.60;;;;;;;13.29;99.70;101478.06;5040236;28;20036;-74
2021/05/11 01:17:49;;;;;;;4.05;1.50;;;;;;;13.28;100.00;101473.72;5039818;28;20061;-73
2021/05/11 01:20:41;;;;;;;1.80;1.60;;;;;;;13.28;100.00;101475.47;5054735;28;20528;-74
2021/05/11 03:08:34;;;;;;;4.78;3.10;;;;;;;12.48;100.00;101468.75;5295585;22;20053;-74
2021/05/11 03:11:19;;;;;;;5.28;3.10;;;;;;;12.72;100.00;101467.53;5036937;28;20041;-73
2021/05/11 03:14:05;;;;;;;5.40;3.20;;;;;;;12.50;100.00;101472.22;5034928;28;20025;-73
2021/05/11 03:16:53;;;;;;;4.13;3.20;;;;;;;12.55;100.00;101470.41;5021270;28;20099;-73
2021/05/11 03:19:39;;;;;;;7.38;3.03;;;;;;;12.78;100.00;101472.72;5035089;28;20040;-75
2021/05/11 03:22:25;;;;;;;4.25;2.90;;;;;;;12.30;100.00;101470.75;5035143;28;20029;-73
2021/05/11 03:25:11;;;;;;;4.20;3.08;;;;;;;12.65;100.00;101477.28;5034764;28;20427;-73
2021/05/11 03:27:59;;;;;;;5.38;3.20;;;;;;;12.44;100.00;101481.94;5035617;28;20389;-73
2021/05/11 03:30:45;;;;;;;8.10;3.83;;;;;;;12.45;100.00;101489.81;5035284;28;20029;-73
2021/05/11 03:33:30;;;;;;;5.05;3.78;;;;;;;12.34;100.00;101494.31;5021448;28;20061;-73
2021/05/11 03:36:16;;;;;;;4.90;3.55;;;;;;;12.08;100.00;101500.78;5020786;28;20453;-73
2021/05/11 03:39:06;;;;;;;8.30;3.90;;;;;;;11.33;100.00;101504.13;5034673;28;20029;-73
2021/05/11 03:41:58;;;;;;;6.50;3.60;;;;;;;11.79;100.00;101505.47;5034898;28;20088;-74
2021/05/11 03:44:50;;;;;;;10.00;4.20;;;;;;;12.22;100.00;101491.84;5034372;28;20030;-74
2021/05/11 03:47:44;;;;;;;8.25;3.63;;;;;;;12.20;100.00;101504.13;5021420;28;20402;-74
2021/05/11 03:50:30;;;;;;;5.03;3.42;;;;;;;12.07;100.00;101496.41;5023107;28;20424;-73
2021/05/11 03:53:15;;;;;;;6.20;3.72;;;;;;;12.38;100.00;101498.66;5034381;28;20037;-74
2021/05/11 03:56:02;;;;;;;6.30;3.80;;;;;;;12.24;100.00;101504.97;5021407;28;20026;-74
2021/05/11 03:58:48;;;;;;;9.48;3.85;;;;;;;12.43;100.00;101510.00;5020660;28;20458;-74
2021/05/11 04:01:34;;;;;;;6.40;3.90;;;;;;;12.56;100.00;101498.44;5034005;28;20048;-74
2021/05/11 04:04:20;;;;;;;7.70;3.90;;;;;;;12.14;100.00;101503.34;5035982;28;20157;-74
2021/05/11 04:07:07;;;;;;;8.48;3.72;;;;;;;12.55;100.00;101494.06;5019924;28;20541;-74
2021/05/11 04:09:56;;;;;;;9.85;3.88;;;;;;;12.72;100.00;101505.22;5035327;28;20025;-74
2021/05/11 04:18:52;;;;;;;6.25;3.33;;;;;;;12.34;100.00;101493.47;5034930;28;20342;-74
2021/05/11 04:21:38;;;;;;;6.30;3.80;;;;;;;12.81;100.00;101491.06;5034764;28;20037;-74
2021/05/11 04:24:25;;;;;;;6.30;4.65;;;;;;;12.40;100.00;101493.38;5035034;28;20429;-73
2021/05/11 04:27:11;;;;;;;7.95;4.15;;;;;;;12.46;100.00;101496.78;5020443;28;20017;-74
2021/05/11 04:30:00;;;;;;;12.60;4.32;;;;;;;12.61;100.00;101493.09;5034488;28;20335;-73
2021/05/11 04:32:46;;;;;;;7.68;4.18;;;;;;;12.86;100.00;101491.88;5020247;28;20442;-75
2021/05/11 04:35:32;;;;;;;6.43;4.40;;;;;;;12.70;100.00;101493.00;5034323;28;20025;-73
2021/05/11 04:38:18;;;;;;;7.00;4.10;;;;;;;12.45;100.00;101494.19;5033965;28;20109;-73
2021/05/11 04:41:08;;;;;;;6.22;4.25;;;;;;;12.68;100.00;101490.38;5020529;28;20049;-74
2021/05/11 04:43:54;;;;;;;11.07;4.18;;;;;;;12.61;100.00;101501.84;5034268;28;20032;-74
2021/05/11 04:49:31;;;;;;;9.38;4.18;;;;;;;12.78;100.00;101491.97;5034272;28;20063;-73
2021/05/11 04:52:17;;;;;;;7.18;3.80;;;;;;;12.92;100.00;101492.66;5019959;28;20029;-74
2021/05/11 04:55:03;;;;;;;9.02;3.63;;;;;;;13.22;100.00;101497.47;5033687;28;20125;-73
2021/05/11 04:57:49;;;;;;;5.82;4.35;;;;;;;13.48;100.00;101497.94;5020431;28;20037;-75
2021/05/11 05:00:36;;;;;;;8.43;4.15;;;;;;;13.35;100.00;101493.75;5034408;28;20071;-73
2021/05/11 05:03:26;;;;;;;6.95;4.22;;;;;;;12.88;100.00;101498.84;5033743;28;20135;-74
2021/05/11 05:06:12;;;;;;;7.32;3.45;;;;;;;12.69;100.00;101492.13;5033390;28;20029;-73
2021/05/11 05:08:57;;;;;;;4.30;2.25;;;;;;;12.37;100.00;101491.66;5033527;28;20064;-73
2021/05/11 05:11:43;;;;;;;5.07;2.53;;;;;;;12.82;100.00;101496.31;5033972;28;20366;-74
2021/05/11 05:14:29;;;;;;;4.70;2.58;;;;;;;12.54;100.00;101487.06;5033742;28;20025;-74
2021/05/11 05:17:14;;;;;;;7.15;3.00;;;;;;;12.92;100.00;101492.66;5033801;28;20025;-74
2021/05/11 05:20:00;;;;;;;11.68;2.78;;;;;;;13.00;100.00;101490.81;5019640;28;20434;-73
2021/05/11 05:22:46;;;;;;;5.78;2.90;;;;;;;13.25;100.00;101486.03;5020016;28;20030;-73
2021/05/11 05:25:32;;;;;;;4.35;2.53;;;;;;;13.78;100.00;101497.38;5033440;28;20023;-74
2021/05/11 05:28:18;;;;;;;6.38;2.60;;;;;;;14.08;99.93;101496.84;5034106;28;20382;-72
2021/05/11 05:31:04;;;;;;;6.57;2.70;;;;;;;13.62;99.74;101495.91;5033728;28;20048;-73
2021/05/11 05:33:50;;;;;;;5.57;2.80;;;;;;;13.88;97.14;101498.97;5033689;28;20412;-73
2021/05/11 05:36:35;;;;;;;8.32;2.67;;;;;;;14.68;92.52;101489.44;5033698;28;20029;-73
2021/05/11 05:39:26;;;;;;;7.45;2.60;;;;;;;14.66;90.25;101491.25;5019591;28;20461;-73
2021/05/11 05:42:12;;;;;;;11.65;5.15;;;;;;;14.78;90.59;101493.59;5032906;28;20034;-73
2021/05/11 05:44:58;;;;;;;9.60;3.70;;;;;;;14.77;92.11;101503.31;5033280;28;20466;-74
2021/05/11 05:47:52;;;;;;;11.85;3.67;;;;;;;14.27;93.49;101498.22;5018756;28;20358;-74
2021/05/11 05:50:38;;;;;;;6.75;2.83;;;;;;;14.20;94.28;101499.19;5033031;28;20067;-73
2021/05/11 05:53:29;;;;;;;8.18;3.38;;;;;;;14.40;93.99;101497.06;5019416;28;20029;-73
2021/05/11 05:56:15;;;;;;;6.53;3.22;;;;;;;14.17;93.80;101498.41;5033615;28;20036;-73
2021/05/11 05:59:01;;;;;;;5.65;2.35;;;;;;;14.15;96.82;101500.22;5033358;28;20022;-72
2021/05/11 06:01:48;;;;;;;9.48;3.47;;;;;;;14.33;95.06;101500.75;5020145;28;20052;-76
2021/05/11 06:04:38;;;;;;;8.00;3.05;;;;;;;14.41;95.91;101497.94;5034214;28;20029;-73
2021/05/11 06:07:24;;;;;;;12.13;2.80;;;;;;;14.95;93.29;101490.59;5019669;28;20562;-76
2021/05/11 06:10:11;;;;;;;10.95;3.10;;;;;;;14.45;91.54;101491.69;5032963;28;20025;-73
2021/05/11 06:13:04;;;;;;;12.85;3.10;;;;;;;14.57;89.52;101500.22;5019565;28;20029;-73
2021/05/11 06:18:57;;;;;;;9.38;3.15;;;;;;;15.54;84.19;101496.19;5034932;28;20351;-74
2021/05/11 06:21:43;;;;;;;16.30;3.50;;;;;;;15.57;83.76;101503.16;5036675;28;20116;-74
2021/05/11 06:24:29;;;;;;;11.07;2.88;;;;;;;15.22;82.43;101496.09;5023089;28;20061;-73
2021/05/11 06:27:15;;;;;;;17.75;3.40;;;;;;;15.32;82.65;101494.09;5036550;28;20033;-74
2021/05/11 06:30:00;;;;;;;14.40;2.88;;;;;;;15.14;81.57;101502.47;5023413;28;20136;-74
2021/05/11 06:32:46;;;;;;;13.65;2.88;;;;;;;15.50;80.45;101501.59;5036687;28;20044;-76
2021/05/11 06:35:33;;;;;;;24.90;3.65;;;;;;;15.66;78.20;101502.94;5036628;28;20033;-76
2021/05/11 06:38:19;;;;;;;18.20;3.67;;;;;;;15.78;76.19;101507.91;5022734;28;20417;-76
2021/05/11 06:41:05;;;;;;;18.13;3.90;;;;;;;15.88;76.52;101498.84;5036570;28;20436;-76
2021/05/11 06:44:03;;;;;;;21.30;4.07;;;;;;;16.35;76.35;101501.91;5023362;28;20120;-76
2021/05/11 06:53:11;;;;;;;6.45;2.72;;;;;;;16.12;76.57;101493.72;5037730;28;20049;-75
2021/05/11 06:55:57;;;;;;;4.80;2.40;;;;;;;17.23;74.86;101497.44;5034459;28;20029;-76
2021/05/11 06:58:43;;;;;;;6.22;2.53;;;;;;;17.55;75.12;101492.84;5041986;28;20041;-76
2021/05/11 07:01:29;;;;;;;13.40;2.90;;;;;;;17.40;72.65;101490.72;5026288;28;20574;-76
2021/05/11 07:04:15;;;;;;;9.32;2.55;;;;;;;17.31;75.34;101493.63;5036468;28;20108;-74
2021/05/11 07:07:01;;;;;;;5.03;2.40;;;;;;;17.35;73.50;101484.66;5037890;28;20024;-74
2021/05/11 07:15:40;;;;;;;6.03;2.45;;;;;;;17.92;67.88;101480.06;5036324;28;20044;-75
2021/05/11 07:18:28;;;;;;;6.10;2.00;;;;;;;17.85;68.32;101475.88;5036206;28;20361;-74
2021/05/11 07:21:14;;;;;;;8.93;2.30;;;;;;;18.42;67.06;101479.13;5021714;28;20034;-75
2021/05/11 08:05:28;;;;;;;2.67;1.60;;;;;;;20.43;49.21;101447.59;5014855;28;20026;-76
2021/05/11 08:17:16;;;;;;;2.13;1.50;;;;;;;22.09;46.43;101440.97;5015351;28;20026;-76
2021/05/11 08:23:19;;;;;;;5.68;1.83;;;;;;;21.83;45.23;101442.34;5015025;28;20022;-77
2021/05/11 08:29:09;;;;;;;6.28;1.95;;;;;;;21.64;45.86;101446.03;5014624;28;20026;-76
2021/05/11 08:31:55;;;;;;;8.23;1.88;;;;;;;22.42;44.74;101440.03;5015025;28;20029;-77
2021/05/11 08:34:41;;;;;;;8.73;1.67;;;;;;;22.52;44.10;101435.94;5000081;28;20352;-77
2021/05/11 08:37:26;;;;;;;4.07;1.75;;;;;;;22.08;42.60;101434.78;5013782;28;20022;-76
2021/05/11 08:40:13;;;;;;;2.83;1.67;;;;;;;22.49;42.74;101429.88;5014417;28;20048;-76
2021/05/11 08:43:01;;;;;;;3.55;1.65;;;;;;;22.85;41.53;101442.06;5013493;28;20029;-76
2021/05/11 08:45:47;;;;;;;5.80;1.60;;;;;;;22.79;41.73;101425.53;5014144;28;20097;-77
2021/05/11 08:48:34;;;;;;;2.85;1.90;;;;;;;22.70;41.49;101429.56;5014981;28;20033;-77
2021/05/11 08:51:31;;;;;;;2.75;1.83;;;;;;;23.17;41.09;101421.50;5013963;28;20219;-77
2021/05/11 08:54:26;;;;;;;3.28;1.50;;;;;;;23.46;40.87;101422.50;5014417;28;20029;-77
2021/05/11 09:06:48;;;;;;;5.03;1.60;;;;;;;22.95;38.84;101416.53;5014743;28;20113;-76
2021/05/11 09:25:36;;;;;;;2.40;1.20;;;;;;;23.61;33.54;101394.81;5014194;28;20033;-77
2021/05/11 09:28:34;;;;;;;3.80;1.50;;;;;;;23.14;34.44;101398.47;4999871;28;20061;-75
2021/05/11 09:34:42;;;;;;;6.38;2.17;;;;;;;22.95;35.82;101402.31;5014495;28;20026;-74
2021/05/11 10:31:20;;;;;;;7.47;2.38;;;;;;;23.46;32.19;101344.94;5017195;28;20022;-74
2021/05/11 10:37:04;;;;;;;2.10;1.40;;;;;;;24.17;32.79;101342.22;5017329;28;20371;-74
2021/05/11 10:44:05;;;;;;;1.50;1.13;;;;;;;24.14;31.02;101336.19;5016420;28;20037;-75
2021/05/11 10:46:59;;;;;;;2.67;1.20;;;;;;;24.86;30.71;101331.41;5016993;28;20240;-75
2021/05/11 10:49:45;;;;;;;8.13;1.30;;;;;;;24.63;30.68;101327.56;4988842;28;20029;-75
2021/05/11 10:52:42;;;;;;;2.00;1.23;;;;;;;25.17;30.27;101331.06;5016010;28;20485;-74
2021/05/11 10:55:31;;;;;;;2.42;1.15;;;;;;;25.00;30.17;101326.84;5002708;28;20111;-73
2021/05/11 10:58:20;;;;;;;4.05;1.38;;;;;;;24.92;30.62;101323.84;5016074;28;20343;-75
2021/05/11 11:01:11;;;;;;;3.67;1.50;;;;;;;25.39;30.96;101326.84;5015774;28;20042;-74
2021/05/11 11:04:14;;;;;;;4.20;1.73;;;;;;;25.72;30.86;101327.19;5016372;28;20030;-74
2021/05/11 11:07:06;;;;;;;4.47;2.20;;;;;;;25.15;31.17;101320.44;5015531;28;20088;-74
2021/05/11 11:10:01;;;;;;;2.20;1.20;;;;;;;25.80;29.59;101322.13;5001846;28;20512;-74
2021/05/11 11:12:47;;;;;;;3.72;1.40;;;;;;;25.23;29.21;101307.38;5015225;28;20466;-74
2021/05/11 11:15:33;;;;;;;3.90;1.30;;;;;;;24.86;29.19;101310.84;5015768;28;20466;-74
2021/05/11 11:18:35;;;;;;;3.67;1.50;;;;;;;24.37;29.86;101303.41;5002230;28;20033;-74
2021/05/11 11:24:08;;;;;;;5.28;1.80;;;;;;;24.80;29.16;101291.63;5015811;28;20518;-74
2021/05/11 11:26:55;;;;;;;5.30;1.25;;;;;;;24.78;27.98;101285.50;5015597;28;20400;-74
2021/05/11 11:29:43;;;;;;;2.50;1.00;;;;;;;25.06;29.90;101277.31;5016274;28;20037;-76
2021/05/11 11:32:29;;;;;;;5.35;1.20;;;;;;;25.63;30.31;101279.50;5015033;28;20037;-75
2021/05/11 11:35:15;;;;;;;3.92;1.35;;;;;;;26.17;29.09;101280.97;5014840;28;20026;-75
2021/05/11 11:38:01;;;;;;;5.13;1.20;;;;;;;25.48;29.72;101279.75;5002164;28;20378;-75
2021/05/11 11:40:56;;;;;;;2.20;1.20;;;;;;;25.19;31.62;101279.03;5015166;28;20196;-75
2021/05/11 11:43:41;;;;;;;2.65;1.20;;;;;;;25.32;31.35;101274.56;5016375;28;20116;-75
2021/05/11 11:46:29;;;;;;;6.45;1.45;;;;;;;25.80;30.67;101271.09;5016541;28;20108;-74
2021/05/11 11:49:19;;;;;;;2.90;1.50;;;;;;;26.00;29.76;101277.78;5015149;28;20041;-74
2021/05/11 11:52:13;;;;;;;3.83;1.45;;;;;;;25.99;28.80;101276.03;5001329;28;20034;-74
2021/05/11 11:57:53;;;;;;;3.80;1.30;;;;;;;26.64;28.66;101269.41;5015002;28;20431;-74
2021/05/11 12:00:39;;;;;;;1.70;1.30;;;;;;;26.70;26.43;101261.75;5014815;28;20081;-75
2021/05/11 12:03:26;;;;;;;2.67;1.20;;;;;;;26.77;26.49;101252.22;5014699;28;20124;-75
2021/05/11 12:06:25;;;;;;;4.47;1.65;;;;;;;26.35;25.67;101258.09;5014674;28;20025;-75
2021/05/11 12:09:12;;;;;;;3.05;1.40;;;;;;;26.20;25.85;101253.03;5015217;28;20044;-74
2021/05/11 12:12:00;;;;;;;4.30;1.40;;;;;;;26.93;25.95;101243.84;5015838;28;20033;-74
2021/05/11 12:14:46;;;;;;;3.95;1.30;;;;;;;26.88;26.62;101240.66;5015208;28;20057;-74
2021/05/11 12:17:32;;;;;;;2.03;1.10;;;;;;;27.13;25.77;101246.69;5016645;28;20022;-75
2021/05/11 12:20:27;;;;;;;4.53;1.33;;;;;;;26.61;25.12;101232.84;5015503;28;20203;-74
2021/05/11 12:23:15;;;;;;;9.73;1.90;;;;;;;26.91;25.42;101235.91;5015296;28;20025;-77
2021/05/11 12:26:06;;;;;;;3.40;1.08;;;;;;;26.28;25.24;101239.88;5014614;28;20338;-74
2021/05/11 12:29:11;;;;;;;5.82;1.30;;;;;;;25.59;25.16;101231.56;5016233;28;20022;-76
2021/05/11 12:31:57;;;;;;;13.10;2.90;;;;;;;26.03;25.62;101235.44;5015669;28;20354;-75
2021/05/11 12:34:42;;;;;;;4.05;1.60;;;;;;;26.38;25.28;101219.41;5015729;28;20116;-74
2021/05/11 12:37:46;;;;;;;1.20;1.10;;;;;;;26.02;24.74;101225.66;5015651;28;20366;-74
2021/05/11 12:41:31;;;;;;;2.40;1.30;;;;;;;25.80;24.60;101221.94;5016153;28;20375;-74
2021/05/11 12:44:02;;;;;;;5.30;1.60;;;;;;;26.46;24.55;101212.47;5014468;28;20029;-76
2021/05/11 12:47:00;;;;;;;4.00;1.55;;;;;;;26.38;25.16;101212.19;5014520;28;20026;-77
2021/05/11 12:49:45;;;;;;;2.72;1.25;;;;;;;25.93;26.16;101212.03;5001188;28;20022;-77
2021/05/11 12:52:31;;;;;;;4.15;1.40;;;;;;;26.01;25.69;101215.03;5014339;28;20026;-77
2021/05/11 12:56:01;;;;;;;2.53;1.42;;;;;;;26.30;25.13;101192.25;5014062;28;20509;-77
2021/05/11 13:28:24;;;;;;;2.20;1.30;;;;;;;26.36;25.54;101152.31;5014883;28;20057;-74
2021/05/11 13:31:27;;;;;;;8.05;4.13;;;;;;;26.40;25.77;101152.97;5018253;28;20112;-75
2021/05/11 13:34:13;;;;;;;6.53;1.73;;;;;;;25.60;26.25;101150.88;5003875;28;20021;-75
2021/05/11 13:36:59;;;;;;;5.28;1.65;;;;;;;25.54;28.66;101161.22;5018345;28;20026;-74
2021/05/11 13:39:45;;;;;;;4.65;2.17;;;;;;;26.04;28.38;101153.03;5004060;28;20033;-74
2021/05/11 13:42:30;;;;;;;3.38;1.60;;;;;;;26.57;28.36;101137.25;5004618;28;20030;-75
2021/05/11 13:45:16;;;;;;;3.67;1.30;;;;;;;26.45;28.02;101138.19;5017312;28;20040;-74
2021/05/11 13:48:05;;;;;;;3.95;1.38;;;;;;;26.67;28.72;101132.03;5017607;28;20292;-75
2021/05/11 13:51:00;;;;;;;3.30;1.40;;;;;;;26.13;29.12;101129.03;5017797;28;20033;-76
2021/05/11 13:53:52;;;;;;;4.65;1.25;;;;;;;25.00;28.24;101138.31;5017452;28;20040;-75
2021/05/11 14:02:42;;;;;;;2.08;1.10;;;;;;;25.25;28.34;101132.91;5017094;28;20050;-74
2021/05/11 14:05:34;;;;;;;4.95;1.35;;;;;;;24.98;27.37;101126.81;5017621;28;20045;-73
2021/05/11 14:08:20;;;;;;;6.07;1.58;;;;;;;25.09;27.13;101119.75;5016756;28;20429;-74
2021/05/11 14:11:06;;;;;;;5.38;1.40;;;;;;;25.46;27.33;101115.28;5016996;28;20044;-74
2021/05/11 14:13:52;;;;;;;2.22;1.10;;;;;;;25.72;27.07;101112.41;5002527;28;20515;-74
2021/05/11 14:16:38;;;;;;;2.65;2.08;;;;;;;25.81;27.04;101106.38;5002481;28;20113;-74
2021/05/11 14:19:27;;;;;;;5.97;1.58;;;;;;;26.09;28.18;101097.16;5002284;28;20288;-75
2021/05/11 14:22:13;;;;;;;4.45;1.60;;;;;;;25.56;26.96;101100.25;5016972;28;20407;-73
2021/05/11 14:24:59;;;;;;;4.05;2.08;;;;;;;25.74;27.96;101099.75;5016888;28;20033;-74
2021/05/11 14:27:45;;;;;;;6.78;1.83;;;;;;;25.71;28.80;101099.97;5016680;28;20045;-73
2021/05/11 14:30:31;;;;;;;4.57;2.00;;;;;;;25.08;27.92;101099.22;5016828;28;20084;-74
2021/05/11 14:33:16;;;;;;;3.38;1.30;;;;;;;25.18;29.07;101094.94;5001957;28;20098;-74
2021/05/11 14:36:02;;;;;;;6.00;1.70;;;;;;;25.38;30.04;101091.72;5017074;28;20459;-74
2021/05/11 14:38:49;;;;;;;4.60;1.30;;;;;;;25.70;30.00;101073.25;5016254;28;20108;-73
2021/05/11 14:41:35;;;;;;;4.03;1.30;;;;;;;25.29;30.58;101088.84;5002306;28;20048;-74
2021/05/11 14:44:21;;;;;;;6.53;1.98;;;;;;;25.46;30.42;101083.09;5002423;28;20033;-74
2021/05/11 14:47:07;;;;;;;4.15;1.50;;;;;;;25.27;28.97;101083.53;5016471;28;20028;-74
2021/05/11 14:49:53;;;;;;;3.95;1.42;;;;;;;25.38;28.36;101085.47;5001743;28;20026;-73
2021/05/11 14:52:39;;;;;;;2.70;1.30;;;;;;;25.17;27.92;101081.63;5001902;28;20037;-74
2021/05/11 14:55:25;;;;;;;4.72;1.35;;;;;;;24.96;28.63;101078.69;5001847;28;20034;-75
2021/05/11 14:58:11;;;;;;;5.90;1.70;;;;;;;25.12;28.62;101068.56;5001899;28;20095;-76
2021/05/11 15:00:57;;;;;;;7.80;2.13;;;;;;;25.10;28.79;101067.81;5016145;28;20045;-75
2021/05/11 15:03:43;;;;;;;14.93;2.97;;;;;;;25.36;28.61;101057.91;5002914;28;20025;-75
2021/05/11 15:06:29;;;;;;;9.65;1.85;;;;;;;25.49;28.67;101058.72;5003146;28;20026;-74
2021/05/11 15:09:15;;;;;;;3.45;1.58;;;;;;;25.25;27.95;101064.03;5016514;28;20405;-75
2021/05/11 15:12:10;;;;;;;1.73;1.17;;;;;;;24.96;27.77;101059.06;5017223;28;20109;-81
2021/05/11 15:14:56;;;;;;;1.85;1.13;;;;;;;24.84;28.47;101060.78;5017231;28;20040;-78
2021/05/11 15:20:33;;;;;;;3.97;1.13;;;;;;;24.84;28.36;101051.88;5016495;28;20037;-76
2021/05/11 15:23:19;;;;;;;8.68;1.92;;;;;;;24.94;28.34;101048.44;5016911;28;20022;-78
2021/05/11 15:26:05;;;;;;;13.05;5.70;;;;;;;24.95;28.67;101050.13;5016417;28;20032;-77
2021/05/11 15:28:50;;;;;;;3.20;2.40;;;;;;;24.75;28.26;101045.34;5015493;28;20034;-75
2021/05/11 15:31:36;;;;;;;2.58;1.10;;;;;;;24.70;28.23;101039.44;5015439;28;20021;-77
2021/05/11 15:34:22;;;;;;;4.95;1.40;;;;;;;24.67;28.04;101036.97;5015263;28;20061;-76
2021/05/11 15:37:08;;;;;;;2.83;1.20;;;;;;;25.01;27.84;101028.25;5015674;28;20029;-74
2021/05/11 15:39:53;;;;;;;5.97;1.50;;;;;;;24.86;28.64;101023.13;5015353;28;20022;-74
2021/05/11 15:42:39;;;;;;;11.05;2.10;;;;;;;24.67;29.48;101025.41;5015292;28;20111;-74
2021/05/11 15:45:27;;;;;;;7.53;1.70;;;;;;;24.41;29.86;101026.34;5015717;28;20036;-76
2021/05/11 15:48:12;;;;;;;3.80;1.45;;;;;;;24.47;30.37;101032.13;5001962;28;20032;-74
2021/05/11 15:50:58;;;;;;;3.67;1.50;;;;;;;24.78;30.70;101014.78;5015296;28;20090;-74
2021/05/11 15:53:44;;;;;;;5.38;1.50;;;;;;;24.47;32.37;101018.72;5001459;28;20053;-74
2021/05/11 15:56:30;;;;;;;2.72;1.50;;;;;;;24.02;33.10;101010.34;5015763;28;20030;-74
2021/05/11 15:59:16;;;;;;;3.20;1.60;;;;;;;24.12;33.29;101014.09;5015513;28;20033;-74
2021/05/11 16:02:01;;;;;;;3.78;1.77;;;;;;;24.21;30.78;101014.34;5015788;28;20443;-75
2021/05/11 16:04:47;;;;;;;4.28;1.45;;;;;;;24.13;30.24;101015.81;5015813;28;20025;-74
2021/05/11 16:07:34;;;;;;;2.03;1.15;;;;;;;24.06;29.65;101009.19;5000620;28;20017;-74
2021/05/11 16:10:20;;;;;;;3.17;1.48;;;;;;;24.30;30.22;101018.22;5014447;28;20421;-73
2021/05/11 16:13:07;;;;;;;4.55;1.75;;;;;;;23.77;31.31;101002.22;5014421;28;20036;-75
2021/05/11 16:15:52;;;;;;;4.07;1.73;;;;;;;24.13;31.38;101013.13;5014964;28;20037;-74
2021/05/11 16:18:39;;;;;;;4.10;1.88;;;;;;;23.88;32.79;101008.59;5014689;28;20446;-74
2021/05/11 16:21:25;;;;;;;8.52;2.10;;;;;;;24.27;33.54;101005.88;5014727;28;20074;-74
2021/05/11 16:24:10;;;;;;;1.85;1.38;;;;;;;23.85;34.54;101005.22;5014867;28;20036;-74
2021/05/11 16:26:56;;;;;;;3.10;1.50;;;;;;;23.59;35.42;100995.44;5014275;28;20088;-75
2021/05/11 16:29:42;;;;;;;4.60;2.25;;;;;;;23.77;35.72;100996.88;5014286;28;20022;-74
2021/05/11 16:32:28;;;;;;;2.95;1.80;;;;;;;23.67;36.55;100993.09;5014455;28;20445;-74
2021/05/11 16:35:15;;;;;;;6.60;1.73;;;;;;;23.40;36.45;100987.78;5014423;28;20123;-74
2021/05/11 16:38:00;;;;;;;5.57;1.50;;;;;;;23.14;36.64;100976.06;5000412;28;20037;-74
2021/05/11 16:40:46;;;;;;;4.53;2.05;;;;;;;23.33;35.16;100981.09;5014392;28;20021;-75
2021/05/11 16:43:32;;;;;;;5.25;1.88;;;;;;;23.35;34.95;100984.56;5014644;28;20036;-75
2021/05/11 16:46:18;;;;;;;4.45;2.30;;;;;;;23.32;35.08;100987.41;5013719;28;20111;-74
2021/05/11 16:49:04;;;;;;;3.60;1.80;;;;;;;23.11;34.95;100978.09;4999961;28;20033;-74
2021/05/11 16:51:50;;;;;;;2.72;1.85;;;;;;;23.16;35.18;100986.66;5014166;28;20057;-74
2021/05/11 16:54:36;;;;;;;8.82;2.78;;;;;;;22.83;35.97;100983.50;5014160;28;20033;-73
2021/05/11 16:57:22;;;;;;;3.90;1.75;;;;;;;22.74;36.44;100982.25;4999769;28;20076;-74
2021/05/11 17:00:08;;;;;;;4.43;1.92;;;;;;;22.74;36.16;100989.41;5012938;28;20049;-74
2021/05/11 17:02:54;;;;;;;6.43;1.90;;;;;;;23.07;35.64;100984.59;5000536;28;20436;-75
2021/05/11 17:05:41;;;;;;;2.90;1.98;;;;;;;23.00;35.59;100983.28;5013963;28;20038;-73
2021/05/11 17:08:26;;;;;;;5.57;1.90;;;;;;;23.08;35.22;100989.81;5001540;28;20347;-74
2021/05/11 17:11:12;;;;;;;4.72;1.88;;;;;;;23.01;35.56;100988.53;5014354;28;20026;-74
2021/05/11 17:14:04;;;;;;;6.28;2.10;;;;;;;22.84;36.03;100988.75;5014139;28;20029;-74
2021/05/11 17:16:49;;;;;;;5.18;1.88;;;;;;;22.51;36.58;100990.00;5013780;28;20026;-74
2021/05/11 17:19:35;;;;;;;5.30;2.15;;;;;;;22.28;37.33;100996.72;5014373;28;20022;-74
2021/05/11 17:22:21;;;;;;;3.25;2.25;;;;;;;22.32;37.61;100992.06;5014007;28;20088;-73
2021/05/11 17:25:08;;;;;;;3.63;2.05;;;;;;;22.51;37.41;100992.66;5014467;28;20026;-73
2021/05/11 17:27:54;;;;;;;9.50;2.33;;;;;;;22.11;38.34;100996.88;5014046;28;20022;-74
2021/05/11 17:30:40;;;;;;;5.60;2.15;;;;;;;22.10;38.35;100994.31;5014337;28;20034;-74
2021/05/11 17:33:27;;;;;;;2.75;1.98;;;;;;;21.83;39.04;100991.47;5014314;28;20030;-74
2021/05/11 17:36:12;;;;;;;4.95;2.47;;;;;;;21.91;39.17;100991.03;5013475;28;20048;-74
2021/05/11 17:38:59;;;;;;;4.05;2.40;;;;;;;21.97;39.43;100988.84;5000926;28;20053;-74
2021/05/11 17:41:45;;;;;;;4.40;2.60;;;;;;;21.86;39.91;100993.97;5013524;28;20104;-74
2021/05/11 17:44:31;;;;;;;6.50;2.38;;;;;;;21.53;40.75;100993.25;5014153;28;20022;-74
2021/05/11 17:47:17;;;;;;;7.15;2.70;;;;;;;21.61;40.72;100990.13;5014014;28;20032;-74
2021/05/11 17:50:07;;;;;;;6.50;2.30;;;;;;;21.46;41.16;100991.88;5014972;28;20362;-74
2021/05/11 17:52:53;;;;;;;4.95;2.20;;;;;;;21.69;41.07;100993.19;5000266;28;20056;-75
2021/05/11 17:55:38;;;;;;;8.40;2.20;;;;;;;21.74;41.41;101001.84;5014188;28;20026;-73
2021/05/11 17:58:25;;;;;;;3.70;2.40;;;;;;;21.70;41.53;100993.16;5013261;28;20439;-74
2021/05/11 18:01:10;;;;;;;5.35;2.15;;;;;;;21.77;41.63;100997.19;5013521;28;20445;-73
2021/05/11 18:03:56;;;;;;;3.55;2.33;;;;;;;21.63;41.86;100996.25;5013295;28;20065;-74
2021/05/11 18:06:42;;;;;;;3.58;2.00;;;;;;;21.66;42.17;100993.41;5013485;28;20033;-73
2021/05/11 18:09:28;;;;;;;6.30;2.45;;;;;;;21.10;42.91;100987.81;5014081;28;20063;-74
2021/05/11 18:12:13;;;;;;;7.85;2.28;;;;;;;20.87;43.42;100991.72;5013847;28;20048;-74
2021/05/11 18:14:59;;;;;;;5.47;1.92;;;;;;;21.23;43.14;100987.03;5003045;28;20030;-74